Time;durP1;ratioP1;P1;durP2;ratioP2;P2;SDS_P1;SDS_P2;PMS_P1;PMS_P2;Temp;Humidity;BMP_temperature;BMP_pressure;BME280_temperature;BME280_humidity;BME280_pressure;Samples;Min_cycle;Max_cycle;Signal;HPM_P1;HPM_P2
2024/01/07 00:01:29;;;;;;;5.50;2.80;;;3.40;99.90;;;;;;4913321;29;20195;-56
2024/01/07 00:03:55;;;;;;;5.20;2.87;;;3.40;99.90;;;;;;4912972;29;20188;-53
2024/01/07 00:06:20;;;;;;;4.63;2.90;;;3.50;99.90;;;;;;4913272;29;20188;-50
2024/01/07 00:08:47;;;;;;;6.70;2.67;;;3.50;99.90;;;;;;4913142;29;20199;-52
2024/01/07 00:11:13;;;;;;;5.47;2.60;;;3.50;99.90;;;;;;4908657;29;20223;-50
2024/01/07 00:13:38;;;;;;;5.13;2.57;;;3.50;99.90;;;;;;4902985;29;20211;-52
2024/01/07 00:16:04;;;;;;;3.53;2.13;;;3.50;99.90;;;;;;4905467;29;20223;-56
2024/01/07 00:18:30;;;;;;;4.40;2.37;;;3.60;99.90;;;;;;4912934;29;20235;-54
2024/01/07 00:20:55;;;;;;;4.73;2.70;;;3.60;99.90;;;;;;4913171;29;20191;-51
2024/01/07 00:23:21;;;;;;;6.10;3.00;;;3.50;99.90;;;;;;4912553;29;20184;-57
2024/01/07 00:25:47;;;;;;;4.40;2.47;;;3.60;99.90;;;;;;4905196;29;20702;-53
2024/01/07 00:28:13;;;;;;;4.90;2.70;;;3.50;99.90;;;;;;4905176;29;20219;-53
2024/01/07 00:30:38;;;;;;;5.67;3.17;;;3.60;99.90;;;;;;4912972;29;20246;-53
2024/01/07 00:33:04;;;;;;;5.93;2.80;;;3.50;99.90;;;;;;4912480;29;20585;-57
2024/01/07 00:35:30;;;;;;;5.67;3.27;;;3.50;99.90;;;;;;4905141;29;20608;-53
2024/01/07 00:37:58;;;;;;;5.67;2.60;;;3.40;99.90;;;;;;4913123;29;20714;-56
2024/01/07 00:40:24;;;;;;;4.17;2.30;;;3.40;99.90;;;;;;4912801;29;20711;-54
2024/01/07 00:42:51;;;;;;;4.30;2.30;;;3.40;99.90;;;;;;4912184;29;20188;-54
2024/01/07 00:45:16;;;;;;;4.27;2.33;;;3.40;99.90;;;;;;4913345;29;20192;-51
2024/01/07 00:47:42;;;;;;;4.23;2.13;;;3.40;99.90;;;;;;4910914;29;20200;-52
2024/01/07 00:50:08;;;;;;;4.87;2.33;;;3.50;99.90;;;;;;4907299;29;20743;-54
2024/01/07 00:52:34;;;;;;;7.17;2.30;;;3.40;99.90;;;;;;4914322;29;20241;-56
2024/01/07 00:55:00;;;;;;;4.13;2.10;;;3.30;99.90;;;;;;4915570;29;20557;-52
2024/01/07 00:57:25;;;;;;;3.33;2.10;;;3.30;99.90;;;;;;4916212;29;20575;-53
2024/01/07 00:59:51;;;;;;;3.93;2.07;;;3.30;99.90;;;;;;4916070;29;20203;-53
2024/01/07 01:02:16;;;;;;;4.53;2.33;;;3.30;99.90;;;;;;4915557;29;20692;-52
2024/01/07 01:04:42;;;;;;;3.93;2.07;;;3.30;99.90;;;;;;4916584;29;20191;-53
2024/01/07 01:07:08;;;;;;;4.50;1.90;;;3.30;99.90;;;;;;4915876;29;20191;-53
2024/01/07 01:09:34;;;;;;;3.30;1.97;;;3.40;99.90;;;;;;4916172;29;20219;-54
2024/01/07 01:11:59;;;;;;;4.27;2.40;;;3.40;99.90;;;;;;4915279;29;20212;-55
2024/01/07 01:14:25;;;;;;;3.33;1.90;;;3.40;99.90;;;;;;4916011;29;20192;-53
2024/01/07 01:16:50;;;;;;;3.23;1.97;;;3.40;99.90;;;;;;4916058;29;20776;-52
2024/01/07 01:19:17;;;;;;;3.40;2.03;;;3.30;99.90;;;;;;4909385;29;20708;-54
2024/01/07 01:21:43;;;;;;;4.10;2.10;;;3.30;99.90;;;;;;4914960;29;20206;-54
2024/01/07 01:24:08;;;;;;;5.03;2.07;;;3.40;99.90;;;;;;4915522;29;20192;-54
2024/01/07 01:26:34;;;;;;;3.17;1.97;;;3.40;99.90;;;;;;4915842;29;20584;-56
2024/01/07 01:29:00;;;;;;;4.83;2.43;;;3.30;99.90;;;;;;4915725;29;20216;-54
2024/01/07 01:31:25;;;;;;;5.83;2.40;;;3.40;99.90;;;;;;4915591;29;20199;-54
2024/01/07 01:33:51;;;;;;;4.90;2.50;;;3.40;99.90;;;;;;4907135;29;20271;-51
2024/01/07 01:36:16;;;;;;;3.67;1.80;;;3.40;99.90;;;;;;4915695;29;20192;-54
2024/01/07 01:38:42;;;;;;;4.67;2.07;;;3.40;99.90;;;;;;4907707;29;20276;-54
2024/01/07 01:41:07;;;;;;;4.20;2.30;;;3.40;99.90;;;;;;4915522;29;20546;-53
2024/01/07 01:43:33;;;;;;;3.77;1.77;;;3.40;99.90;;;;;;4914667;29;20210;-53
2024/01/07 01:45:59;;;;;;;4.63;2.10;;;3.40;99.90;;;;;;4915377;29;20180;-55
2024/01/07 01:48:25;;;;;;;2.27;1.60;;;3.30;99.90;;;;;;4915538;29;20329;-52
2024/01/07 01:50:54;;;;;;;3.77;2.10;;;3.30;99.90;;;;;;4914980;29;20212;-55
2024/01/07 01:53:19;;;;;;;4.17;2.23;;;3.20;99.90;;;;;;4914657;29;20243;-55
2024/01/07 01:55:45;;;;;;;3.60;2.13;;;3.20;99.90;;;;;;4913131;29;20664;-55
2024/01/07 01:58:13;;;;;;;4.70;2.40;;;3.20;99.90;;;;;;4909748;29;20187;-53
2024/01/07 02:00:39;;;;;;;4.63;2.43;;;3.20;99.90;;;;;;4913608;29;20215;-54
2024/01/07 02:03:05;;;;;;;3.73;2.03;;;3.10;99.90;;;;;;4908273;29;20188;-54
2024/01/07 02:05:31;;;;;;;5.63;2.20;;;3.10;99.90;;;;;;4914450;29;20195;-54
2024/01/07 02:07:57;;;;;;;3.33;1.90;;;3.10;99.90;;;;;;4907832;29;20774;-53
2024/01/07 02:10:23;;;;;;;4.30;2.00;;;3.10;99.90;;;;;;4914936;29;20708;-53
2024/01/07 02:12:48;;;;;;;4.07;1.97;;;3.10;99.90;;;;;;4914181;29;20241;-51
2024/01/07 02:15:15;;;;;;;5.00;1.97;;;3.20;99.90;;;;;;4915004;29;20188;-57
2024/01/07 02:17:41;;;;;;;3.77;1.97;;;3.20;99.90;;;;;;4914762;29;20559;-53
2024/01/07 02:20:07;;;;;;;3.77;2.13;;;3.20;99.90;;;;;;4914715;29;20283;-52
2024/01/07 02:22:32;;;;;;;3.20;1.90;;;3.20;99.90;;;;;;4914097;29;20195;-55
2024/01/07 02:24:58;;;;;;;3.40;1.63;;;3.20;99.90;;;;;;4914800;29;20192;-57
2024/01/07 02:27:23;;;;;;;3.53;2.00;;;3.30;99.90;;;;;;4914588;29;20315;-55
2024/01/07 02:29:49;;;;;;;2.90;1.73;;;3.30;99.90;;;;;;4914400;29;20212;-54
2024/01/07 02:32:14;;;;;;;3.00;1.57;;;3.30;99.90;;;;;;4906506;29;20615;-53
2024/01/07 02:34:40;;;;;;;2.83;1.60;;;3.30;99.90;;;;;;4912621;29;20282;-54
2024/01/07 02:37:05;;;;;;;2.87;1.70;;;3.30;99.90;;;;;;4914875;29;20176;-57
2024/01/07 02:39:31;;;;;;;3.60;1.77;;;3.20;99.90;;;;;;4914239;29;20290;-57
2024/01/07 02:41:57;;;;;;;2.63;1.53;;;3.20;99.90;;;;;;4914594;29;20664;-55
2024/01/07 02:44:22;;;;;;;4.13;2.07;;;3.00;99.90;;;;;;4914664;29;20561;-54
2024/01/07 02:46:48;;;;;;;2.60;1.53;;;2.80;99.90;;;;;;4914376;29;20568;-57
2024/01/07 02:49:14;;;;;;;2.73;1.80;;;2.80;99.90;;;;;;4914303;29;20586;-57
2024/01/07 02:51:39;;;;;;;4.00;2.00;;;2.80;99.90;;;;;;4906104;29;20240;-54
2024/01/07 02:54:05;;;;;;;3.90;1.80;;;2.80;99.90;;;;;;4913786;29;20183;-56
2024/01/07 02:56:31;;;;;;;3.63;1.70;;;2.70;99.90;;;;;;4914118;29;20691;-55
2024/01/07 02:58:56;;;;;;;5.07;1.83;;;2.80;99.90;;;;;;4913860;29;20290;-58
2024/01/07 03:01:25;;;;;;;3.17;1.50;;;2.80;99.90;;;;;;4914210;29;20196;-58
2024/01/07 03:03:51;;;;;;;3.83;1.77;;;2.80;99.90;;;;;;4913458;29;20259;-59
2024/01/07 03:06:16;;;;;;;3.37;1.77;;;2.80;99.90;;;;;;4906196;29;20295;-57
2024/01/07 03:08:42;;;;;;;3.73;1.67;;;2.70;99.90;;;;;;4913804;29;20184;-59
2024/01/07 03:11:08;;;;;;;4.40;1.97;;;2.70;99.90;;;;;;4908801;29;20185;-57
2024/01/07 03:13:34;;;;;;;4.93;2.13;;;2.70;99.90;;;;;;4910469;29;20229;-57
2024/01/07 03:15:59;;;;;;;3.83;2.07;;;2.60;99.90;;;;;;4913591;29;20269;-56
2024/01/07 03:18:27;;;;;;;3.33;1.93;;;2.60;99.90;;;;;;4913845;29;20278;-58
2024/01/07 03:20:52;;;;;;;4.07;2.20;;;2.60;99.90;;;;;;4913723;29;20297;-57
2024/01/07 03:23:18;;;;;;;5.87;2.80;;;2.60;99.90;;;;;;4906759;29;20731;-56
2024/01/07 03:25:44;;;;;;;5.10;2.30;;;2.60;99.90;;;;;;4912454;29;20568;-56
2024/01/07 03:28:09;;;;;;;5.50;2.63;;;2.60;99.90;;;;;;4913345;29;20194;-58
2024/01/07 03:30:35;;;;;;;5.97;2.50;;;2.50;99.90;;;;;;4913420;29;20243;-58
2024/01/07 03:33:01;;;;;;;4.50;2.23;;;2.60;99.90;;;;;;4912908;29;20287;-56
2024/01/07 03:35:27;;;;;;;5.17;2.47;;;2.60;99.90;;;;;;4913660;29;20900;-56
2024/01/07 03:37:52;;;;;;;4.63;2.40;;;2.60;99.90;;;;;;4912333;29;20188;-57
2024/01/07 03:40:18;;;;;;;4.57;2.47;;;2.50;99.90;;;;;;4913544;29;20254;-58
2024/01/07 03:42:43;;;;;;;4.73;2.40;;;2.50;99.90;;;;;;4912697;29;20196;-58
2024/01/07 03:45:09;;;;;;;5.47;2.90;;;2.40;99.90;;;;;;4908259;29;20188;-56
2024/01/07 03:47:34;;;;;;;4.63;2.40;;;2.50;99.90;;;;;;4911431;29;20667;-55
2024/01/07 03:50:00;;;;;;;4.67;2.47;;;2.50;99.90;;;;;;4909502;29;20263;-52
2024/01/07 03:52:25;;;;;;;5.33;2.53;;;2.60;99.90;;;;;;4909317;29;20263;-56
2024/01/07 03:54:51;;;;;;;4.50;2.50;;;2.60;99.90;;;;;;4913384;29;20188;-54
2024/01/07 03:57:16;;;;;;;4.27;2.60;;;2.70;99.90;;;;;;4913217;29;20195;-56
2024/01/07 03:59:42;;;;;;;4.00;2.10;;;2.70;99.90;;;;;;4913059;29;20215;-55
2024/01/07 04:02:08;;;;;;;4.63;2.50;;;2.70;99.90;;;;;;4912733;29;20513;-56
2024/01/07 04:04:33;;;;;;;6.80;2.90;;;2.70;99.90;;;;;;4913372;29;20187;-56
2024/01/07 04:06:59;;;;;;;8.47;2.70;;;2.80;99.90;;;;;;4913327;29;20188;-53
2024/01/07 04:09:24;;;;;;;5.37;2.57;;;2.80;99.90;;;;;;4905456;29;20218;-53
2024/01/07 04:11:50;;;;;;;4.77;2.40;;;2.80;99.90;;;;;;4912908;29;20199;-54
2024/01/07 04:14:15;;;;;;;4.80;2.70;;;2.90;99.90;;;;;;4912625;29;20735;-53
2024/01/07 04:16:41;;;;;;;4.37;2.30;;;2.90;99.90;;;;;;4905333;29;20734;-57
2024/01/07 04:19:07;;;;;;;4.60;2.40;;;2.80;99.90;;;;;;4905208;29;20608;-57
2024/01/07 04:21:32;;;;;;;4.13;2.37;;;2.90;99.90;;;;;;4912965;29;20239;-54
2024/01/07 04:23:58;;;;;;;4.67;2.40;;;2.90;99.90;;;;;;4913029;29;20223;-54
2024/01/07 04:26:24;;;;;;;4.73;2.20;;;3.00;99.90;;;;;;4914154;29;20633;-54
2024/01/07 04:28:49;;;;;;;4.90;2.60;;;3.00;99.90;;;;;;4916448;29;20204;-56
2024/01/07 04:31:15;;;;;;;4.67;2.00;;;2.90;99.90;;;;;;4917258;29;20518;-57
2024/01/07 04:33:41;;;;;;;6.33;2.37;;;3.00;99.90;;;;;;4908102;29;20719;-58
2024/01/07 04:36:06;;;;;;;5.07;2.40;;;3.00;99.90;;;;;;4916667;29;20255;-56
2024/01/07 04:38:32;;;;;;;4.17;2.30;;;3.10;99.90;;;;;;4916369;29;20239;-57
2024/01/07 04:40:58;;;;;;;6.33;2.30;;;3.10;99.90;;;;;;4916522;29;20212;-55
2024/01/07 04:43:23;;;;;;;6.03;3.13;;;3.10;99.90;;;;;;4915752;29;20191;-56
2024/01/07 04:45:49;;;;;;;5.80;2.93;;;2.90;99.90;;;;;;4916271;29;20191;-57
2024/01/07 04:48:14;;;;;;;6.43;2.77;;;3.00;99.90;;;;;;4916531;29;20259;-55
2024/01/07 04:50:41;;;;;;;5.40;2.83;;;3.00;99.90;;;;;;4916135;29;20306;-56
2024/01/07 04:53:10;;;;;;;8.27;2.90;;;3.00;99.90;;;;;;4915689;29;20208;-56
2024/01/07 04:55:36;;;;;;;5.43;3.13;;;3.10;99.90;;;;;;4916127;29;20724;-53
2024/01/07 04:58:04;;;;;;;5.77;3.20;;;3.10;99.90;;;;;;4916088;29;20184;-55
2024/01/07 05:00:29;;;;;;;6.23;3.37;;;3.20;99.90;;;;;;4908638;29;20218;-56
2024/01/07 05:02:55;;;;;;;6.93;3.20;;;3.20;99.90;;;;;;4907769;29;20727;-54
2024/01/07 05:05:20;;;;;;;7.37;3.50;;;3.20;99.90;;;;;;4916113;29;20188;-56
2024/01/07 05:07:46;;;;;;;7.73;4.17;;;3.30;99.90;;;;;;4916015;29;20195;-54
2024/01/07 05:10:11;;;;;;;8.30;4.17;;;3.30;99.90;;;;;;4916040;29;20204;-54
2024/01/07 05:12:37;;;;;;;9.83;4.67;;;3.30;99.90;;;;;;4915088;29;20731;-55
2024/01/07 05:15:04;;;;;;;9.53;4.57;;;3.30;99.90;;;;;;4916089;29;20180;-57
2024/01/07 05:17:29;;;;;;;11.03;4.47;;;3.30;99.90;;;;;;4916018;29;20183;-56
2024/01/07 05:19:55;;;;;;;9.73;4.47;;;3.30;99.90;;;;;;4915788;29;20497;-55
2024/01/07 05:22:22;;;;;;;12.13;5.63;;;3.40;99.90;;;;;;4915522;29;20180;-56
2024/01/07 05:24:47;;;;;;;10.60;5.20;;;3.40;99.90;;;;;;4915961;29;20678;-57
2024/01/07 05:27:13;;;;;;;13.30;5.20;;;3.30;99.90;;;;;;4907797;29;20495;-58
2024/01/07 05:29:39;;;;;;;11.17;5.23;;;3.30;99.90;;;;;;4907656;29;20232;-57
2024/01/07 05:32:05;;;;;;;10.53;4.73;;;3.40;99.90;;;;;;4915131;29;20709;-55
2024/01/07 05:34:30;;;;;;;10.13;5.13;;;3.30;99.90;;;;;;4907552;29;20510;-57
2024/01/07 05:36:56;;;;;;;12.13;5.63;;;3.20;99.90;;;;;;4915312;29;20176;-57
2024/01/07 05:39:22;;;;;;;13.73;6.17;;;3.20;99.90;;;;;;4915489;29;20704;-55
2024/01/07 05:41:47;;;;;;;10.27;5.33;;;3.30;99.90;;;;;;4915139;29;20200;-57
2024/01/07 05:44:13;;;;;;;11.87;5.57;;;3.30;99.90;;;;;;4914754;29;20195;-55
2024/01/07 05:46:39;;;;;;;13.53;5.73;;;3.30;99.90;;;;;;4914230;29;20196;-56
2024/01/07 05:49:05;;;;;;;11.40;5.47;;;3.30;99.90;;;;;;4909026;29;20239;-56
2024/01/07 05:51:31;;;;;;;11.50;5.43;;;3.30;99.90;;;;;;4915433;29;20187;-55
2024/01/07 05:53:56;;;;;;;12.47;5.93;;;3.30;99.90;;;;;;4907073;29;20270;-52
2024/01/07 05:56:22;;;;;;;12.50;6.13;;;3.30;99.90;;;;;;4915379;29;20243;-55
2024/01/07 05:58:48;;;;;;;15.37;6.70;;;3.30;99.90;;;;;;4907232;29;20192;-54
2024/01/07 06:01:19;;;;;;;11.87;5.83;;;3.20;99.90;;;;;;4915327;29;20194;-54
2024/01/07 06:03:47;;;;;;;13.10;6.07;;;3.20;99.90;;;;;;4914682;29;20578;-53
2024/01/07 06:06:14;;;;;;;12.33;5.90;;;3.20;99.90;;;;;;4915399;29;20723;-52
2024/01/07 06:08:42;;;;;;;13.33;6.30;;;3.20;99.90;;;;;;4914865;29;20250;-57
2024/01/07 06:11:08;;;;;;;14.70;6.23;;;3.20;99.90;;;;;;4914987;29;20195;-55
2024/01/07 06:13:34;;;;;;;13.93;6.43;;;3.10;99.90;;;;;;4913836;29;20223;-59
2024/01/07 06:15:59;;;;;;;13.40;6.10;;;3.10;99.90;;;;;;4907567;29;20207;-52
2024/01/07 06:18:25;;;;;;;13.13;6.00;;;3.10;99.90;;;;;;4914646;29;20210;-52
2024/01/07 06:20:50;;;;;;;15.13;6.57;;;3.10;99.90;;;;;;4914628;29;20214;-51
2024/01/07 06:23:16;;;;;;;14.10;6.43;;;3.20;99.90;;;;;;4914054;29;20274;-55
2024/01/07 06:25:41;;;;;;;16.77;7.43;;;3.00;99.90;;;;;;4914477;29;20219;-50
2024/01/07 06:28:07;;;;;;;15.00;7.23;;;3.00;99.90;;;;;;4914710;29;20219;-52
2024/01/07 06:30:33;;;;;;;14.17;7.57;;;3.00;99.90;;;;;;4914338;29;20233;-56
2024/01/07 06:32:59;;;;;;;17.73;7.07;;;3.00;99.90;;;;;;4913994;29;20239;-54
2024/01/07 06:35:24;;;;;;;18.90;7.73;;;2.90;99.90;;;;;;4912265;29;20226;-51
2024/01/07 06:37:51;;;;;;;16.33;7.37;;;2.80;99.90;;;;;;4906567;29;20187;-54
2024/01/07 06:40:16;;;;;;;18.20;8.07;;;2.80;99.90;;;;;;4914760;29;20210;-53
2024/01/07 06:42:43;;;;;;;18.83;8.10;;;2.80;99.90;;;;;;4905661;29;20196;-53
2024/01/07 06:45:09;;;;;;;18.03;8.13;;;2.90;99.90;;;;;;4914194;29;20706;-51
2024/01/07 06:47:35;;;;;;;17.57;7.83;;;2.90;99.90;;;;;;4913757;29;20195;-52
2024/01/07 06:50:00;;;;;;;17.63;8.47;;;2.90;99.90;;;;;;4906379;29;20734;-53
2024/01/07 06:52:26;;;;;;;16.57;8.30;;;2.90;99.90;;;;;;4906333;29;20223;-54
2024/01/07 06:54:51;;;;;;;17.30;8.23;;;2.90;99.90;;;;;;4905503;29;20187;-52
2024/01/07 06:57:17;;;;;;;15.90;7.60;;;2.90;99.90;;;;;;4914065;29;20192;-53
2024/01/07 06:59:42;;;;;;;15.73;7.47;;;2.90;99.90;;;;;;4913730;29;20211;-52
2024/01/07 07:02:08;;;;;;;18.97;8.03;;;2.90;99.90;;;;;;4913353;29;20191;-50
2024/01/07 07:04:33;;;;;;;18.13;8.37;;;3.00;99.90;;;;;;4913959;29;20281;-54
2024/01/07 07:07:00;;;;;;;15.80;7.47;;;3.00;99.90;;;;;;4914050;29;20671;-54
2024/01/07 07:09:25;;;;;;;18.47;8.33;;;3.00;99.90;;;;;;4914257;29;20306;-55
2024/01/07 07:11:51;;;;;;;20.80;8.37;;;3.00;99.90;;;;;;4913578;29;20215;-53
2024/01/07 07:14:16;;;;;;;17.47;8.07;;;3.00;99.90;;;;;;4913465;29;20684;-52
2024/01/07 07:16:42;;;;;;;17.57;8.50;;;3.00;99.90;;;;;;4905903;29;20630;-51
2024/01/07 07:19:07;;;;;;;18.10;8.43;;;3.00;99.90;;;;;;4913596;29;20227;-52
2024/01/07 07:21:33;;;;;;;17.33;7.53;;;3.10;99.90;;;;;;4905619;29;20206;-56
2024/01/07 07:23:58;;;;;;;20.33;8.60;;;3.00;99.90;;;;;;4913196;29;20188;-56
2024/01/07 07:26:24;;;;;;;15.03;7.90;;;3.00;99.90;;;;;;4906944;29;20271;-55
2024/01/07 07:28:50;;;;;;;21.23;8.60;;;2.90;99.90;;;;;;4912604;29;20207;-53
2024/01/07 07:31:15;;;;;;;21.10;8.63;;;2.90;99.90;;;;;;4913607;29;20201;-51
2024/01/07 07:33:41;;;;;;;17.17;8.53;;;2.80;99.90;;;;;;4903497;29;20211;-51
2024/01/07 07:36:07;;;;;;;20.80;9.33;;;2.90;99.90;;;;;;4907047;29;20187;-50
2024/01/07 07:38:32;;;;;;;24.60;9.80;;;2.80;99.90;;;;;;4913282;29;20196;-56
2024/01/07 07:40:59;;;;;;;21.17;9.90;;;2.70;99.90;;;;;;4913518;29;20675;-52
2024/01/07 07:43:25;;;;;;;20.33;9.37;;;2.70;99.90;;;;;;4905842;29;20199;-51
2024/01/07 07:45:51;;;;;;;22.13;9.43;;;2.70;99.90;;;;;;4912741;29;20192;-50
2024/01/07 07:48:17;;;;;;;21.53;9.43;;;2.80;99.90;;;;;;4913406;29;20206;-52
2024/01/07 07:50:43;;;;;;;18.90;9.20;;;2.80;99.90;;;;;;4913140;29;20691;-54
2024/01/07 07:53:09;;;;;;;22.17;9.57;;;2.80;99.90;;;;;;4907683;29;20214;-52
2024/01/07 07:55:35;;;;;;;22.67;9.80;;;2.80;99.90;;;;;;4913159;29;20227;-52
2024/01/07 07:58:00;;;;;;;23.93;9.90;;;2.90;99.90;;;;;;4913334;29;20692;-50
2024/01/07 08:00:26;;;;;;;25.70;13.60;;;2.80;99.90;;;;;;4914049;29;20282;-53
2024/01/07 08:02:51;;;;;;;32.63;16.43;;;2.80;99.90;;;;;;4916525;29;20793;-56
2024/01/07 08:05:17;;;;;;;393.90;195.87;;;2.80;99.90;;;;;;4917123;29;20211;-52
2024/01/07 08:07:43;;;;;;;63.10;34.43;;;2.70;99.90;;;;;;4909301;29;20196;-53
2024/01/07 08:10:09;;;;;;;34.53;17.30;;;2.70;99.90;;;;;;4912016;29;20243;-53
2024/01/07 08:12:34;;;;;;;27.73;12.90;;;2.80;99.90;;;;;;4913168;29;20219;-51
2024/01/07 08:15:00;;;;;;;32.73;16.97;;;2.80;99.90;;;;;;4916654;29;20187;-52
2024/01/07 08:17:26;;;;;;;36.03;14.83;;;2.70;99.90;;;;;;4916174;29;20280;-57
2024/01/07 08:19:52;;;;;;;32.47;15.37;;;2.70;99.90;;;;;;4908464;29;20257;-56
2024/01/07 08:22:18;;;;;;;35.00;19.20;;;2.60;99.90;;;;;;4915501;29;20207;-51
2024/01/07 08:24:44;;;;;;;27.87;12.27;;;2.60;99.90;;;;;;4915788;29;20196;-53
2024/01/07 08:27:09;;;;;;;21.60;10.03;;;2.60;99.90;;;;;;4915919;29;20195;-51
2024/01/07 08:29:35;;;;;;;22.63;9.97;;;2.60;99.90;;;;;;4915613;29;20311;-52
2024/01/07 08:32:01;;;;;;;25.50;13.30;;;2.60;99.90;;;;;;4907408;29;20218;-52
2024/01/07 08:34:26;;;;;;;23.30;11.23;;;2.60;99.90;;;;;;4915995;29;20190;-55
2024/01/07 08:36:53;;;;;;;25.23;10.13;;;2.60;99.90;;;;;;4915913;29;20589;-52
2024/01/07 08:39:19;;;;;;;24.27;9.87;;;2.60;99.90;;;;;;4916145;29;20212;-53
2024/01/07 08:41:45;;;;;;;28.17;11.67;;;2.60;99.90;;;;;;4908103;29;20200;-56
2024/01/07 08:44:11;;;;;;;23.90;10.83;;;2.60;99.90;;;;;;4907541;29;20590;-53
2024/01/07 08:46:36;;;;;;;27.53;11.63;;;2.50;99.90;;;;;;4915206;29;20555;-53
2024/01/07 08:49:02;;;;;;;23.53;10.53;;;2.50;99.90;;;;;;4908657;29;20679;-54
2024/01/07 08:51:29;;;;;;;26.03;12.53;;;2.40;99.90;;;;;;4915693;29;20195;-53
2024/01/07 08:53:55;;;;;;;25.83;11.80;;;2.40;99.90;;;;;;4912284;29;20283;-57
2024/01/07 08:56:20;;;;;;;24.83;11.27;;;2.40;99.90;;;;;;4903312;29;20275;-49
2024/01/07 08:58:46;;;;;;;21.57;10.00;;;2.40;99.90;;;;;;4913481;29;20630;-50
2024/01/07 09:01:14;;;;;;;23.73;10.40;;;2.60;99.90;;;;;;4910011;29;20180;-48
2024/01/07 09:03:40;;;;;;;17.87;8.77;;;2.70;99.90;;;;;;4914974;29;20605;-49
2024/01/07 09:06:05;;;;;;;16.47;7.57;;;2.70;99.90;;;;;;4915357;29;20191;-50
2024/01/07 09:08:31;;;;;;;16.23;8.20;;;2.60;99.90;;;;;;4908100;29;20691;-53
2024/01/07 09:10:57;;;;;;;18.50;9.07;;;2.60;99.90;;;;;;4915514;29;20184;-48
2024/01/07 09:13:22;;;;;;;17.23;9.10;;;2.60;99.90;;;;;;4913888;29;20325;-48
2024/01/07 09:15:48;;;;;;;15.40;7.77;;;2.60;99.90;;;;;;4915405;29;20627;-49
2024/01/07 09:18:14;;;;;;;15.57;7.20;;;2.60;99.90;;;;;;4915425;29;20195;-48
2024/01/07 09:20:40;;;;;;;14.20;7.20;;;2.60;99.90;;;;;;4915033;29;20596;-54
2024/01/07 09:23:06;;;;;;;14.67;7.53;;;2.60;99.90;;;;;;4910499;29;20542;-51
2024/01/07 09:25:31;;;;;;;14.23;7.27;;;2.70;99.90;;;;;;4904284;29;20565;-49
2024/01/07 09:27:57;;;;;;;14.80;7.83;;;2.70;99.90;;;;;;4914917;29;20246;-51
2024/01/07 09:30:22;;;;;;;14.70;7.43;;;2.70;99.90;;;;;;4914981;29;20219;-52
2024/01/07 09:32:48;;;;;;;17.30;7.63;;;2.70;99.90;;;;;;4914384;29;20222;-51
2024/01/07 09:35:14;;;;;;;17.20;8.37;;;2.70;99.90;;;;;;4915011;29;20184;-50
2024/01/07 09:37:40;;;;;;;16.77;7.97;;;2.70;99.90;;;;;;4914713;29;20267;-51
2024/01/07 09:40:06;;;;;;;31.63;16.33;;;2.70;99.90;;;;;;4915056;29;20294;-50
2024/01/07 09:42:32;;;;;;;28.70;13.50;;;2.70;99.90;;;;;;4914214;29;20183;-52
2024/01/07 09:45:01;;;;;;;58.80;27.13;;;2.60;99.90;;;;;;4914915;29;20176;-49
2024/01/07 09:47:27;;;;;;;23.30;12.70;;;2.60;99.90;;;;;;4914829;29;20679;-51
2024/01/07 09:49:52;;;;;;;19.23;9.50;;;2.60;99.90;;;;;;4914556;29;20219;-53
2024/01/07 09:52:20;;;;;;;17.27;8.20;;;2.50;99.90;;;;;;4914258;29;20227;-50
2024/01/07 09:54:51;;;;;;;20.83;10.10;;;2.60;99.90;;;;;;4914764;29;20330;-49
2024/01/07 09:57:16;;;;;;;20.03;11.73;;;2.50;99.90;;;;;;4914846;29;20632;-52
2024/01/07 09:59:42;;;;;;;16.90;9.90;;;2.50;99.90;;;;;;4910596;29;20238;-50
2024/01/07 10:02:09;;;;;;;16.13;8.30;;;2.40;99.90;;;;;;4913923;29;20192;-50
2024/01/07 10:04:35;;;;;;;26.77;17.10;;;2.50;99.90;;;;;;4914239;29;20247;-53
2024/01/07 10:07:00;;;;;;;24.83;13.00;;;2.50;99.90;;;;;;4914668;29;20184;-51
2024/01/07 10:09:33;;;;;;;25.23;12.47;;;2.50;99.90;;;;;;4907455;29;20216;-50
2024/01/07 10:11:59;;;;;;;19.07;9.63;;;2.50;99.90;;;;;;4906183;29;20246;-52
2024/01/07 10:14:25;;;;;;;17.63;8.30;;;2.60;99.90;;;;;;4914317;29;20613;-54
2024/01/07 10:16:52;;;;;;;18.87;9.90;;;2.60;99.90;;;;;;4913948;29;20310;-51
2024/01/07 10:19:22;;;;;;;16.63;8.67;;;2.60;99.90;;;;;;4913948;29;20226;-49
2024/01/07 10:22:04;;;;;;;15.63;8.27;;;2.60;99.90;;;;;;4914076;29;20231;-50
2024/01/07 10:24:44;;;;;;;16.53;8.47;;;2.50;99.90;;;;;;4905694;29;20653;-49
2024/01/07 10:27:13;;;;;;;14.50;7.53;;;2.50;99.90;;;;;;4907598;29;20552;-50
2024/01/07 10:29:38;;;;;;;18.17;8.73;;;2.50;99.90;;;;;;4913852;29;20215;-49
2024/01/07 10:32:07;;;;;;;16.83;8.03;;;2.50;99.90;;;;;;4913463;29;20662;-50
2024/01/07 10:34:34;;;;;;;16.63;8.43;;;2.50;99.90;;;;;;4913728;29;20715;-50
2024/01/07 10:37:02;;;;;;;13.97;7.17;;;2.40;99.90;;;;;;4913945;29;20176;-50
2024/01/07 10:39:28;;;;;;;14.87;7.60;;;2.40;99.90;;;;;;4913859;29;20243;-50
2024/01/07 10:41:57;;;;;;;26.47;12.57;;;2.40;99.90;;;;;;4902904;29;20283;-49
2024/01/07 10:44:27;;;;;;;16.40;8.20;;;2.40;99.90;;;;;;4908976;29;20188;-51
2024/01/07 10:46:56;;;;;;;24.43;12.93;;;2.40;99.90;;;;;;4906030;29;20192;-52
2024/01/07 10:49:24;;;;;;;16.57;8.13;;;2.30;99.90;;;;;;4905720;29;20684;-55
2024/01/07 10:52:08;;;;;;;17.50;8.70;;;2.20;99.90;;;;;;4913490;29;20192;-49
2024/01/07 10:54:35;;;;;;;14.20;7.87;;;2.20;99.90;;;;;;4905549;29;20203;-58
2024/01/07 10:57:17;;;;;;;20.27;9.43;;;2.30;99.90;;;;;;4913783;29;20534;-49
2024/01/07 10:59:45;;;;;;;15.57;8.57;;;2.30;99.90;;;;;;4913324;29;20207;-49
2024/01/07 11:02:13;;;;;;;18.97;8.73;;;2.30;99.90;;;;;;4913178;29;20183;-50
2024/01/07 11:05:03;;;;;;;19.50;9.50;;;2.30;99.90;;;;;;4913429;29;20187;-50
2024/01/07 11:07:37;;;;;;;16.40;8.17;;;2.30;99.90;;;;;;4913286;29;20674;-52
2024/01/07 11:10:20;;;;;;;18.60;9.27;;;2.30;99.90;;;;;;4913505;29;20202;-51
2024/01/07 11:12:58;;;;;;;20.63;8.90;;;2.20;99.90;;;;;;4904518;29;20253;-53
2024/01/07 11:15:53;;;;;;;17.30;9.07;;;2.30;99.90;;;;;;4913083;29;20206;-49
2024/01/07 11:18:20;;;;;;;17.13;8.30;;;2.30;99.90;;;;;;4904758;29;20207;-49
2024/01/07 11:20:49;;;;;;;18.60;8.60;;;2.40;99.90;;;;;;4913104;29;20211;-51
2024/01/07 11:23:40;;;;;;;18.00;8.80;;;2.40;99.90;;;;;;4912481;29;20578;-50
2024/01/07 11:26:08;;;;;;;17.67;8.50;;;2.40;99.90;;;;;;4898546;29;20186;-50
2024/01/07 11:28:54;;;;;;;16.60;8.13;;;2.40;99.90;;;;;;4913150;29;20664;-54
2024/01/07 11:31:21;;;;;;;19.97;8.67;;;2.40;99.90;;;;;;4907881;29;20191;-53
2024/01/07 11:33:48;;;;;;;17.90;8.50;;;2.40;99.90;;;;;;4912004;29;20211;-53
2024/01/07 11:36:15;;;;;;;14.90;7.63;;;2.40;99.90;;;;;;4912666;29;20440;-54
2024/01/07 11:38:42;;;;;;;16.67;7.27;;;2.40;99.90;;;;;;4905256;29;20337;-56
2024/01/07 11:41:10;;;;;;;19.30;8.90;;;2.40;99.90;;;;;;4913022;29;20648;-57
2024/01/07 11:43:36;;;;;;;19.03;8.07;;;2.50;99.90;;;;;;4909561;29;20719;-54
2024/01/07 11:46:02;;;;;;;21.57;9.00;;;2.50;99.90;;;;;;4904865;29;20279;-56
2024/01/07 11:48:28;;;;;;;17.97;8.50;;;2.30;99.90;;;;;;4912863;29;20765;-56
2024/01/07 11:50:53;;;;;;;18.43;9.60;;;2.20;99.90;;;;;;4910122;29;20200;-53
2024/01/07 11:53:19;;;;;;;15.97;7.87;;;2.30;99.90;;;;;;4907124;29;20216;-55
2024/01/07 11:55:46;;;;;;;17.73;8.17;;;2.30;99.90;;;;;;4912701;29;20775;-52
2024/01/07 11:58:11;;;;;;;19.23;7.87;;;2.30;99.90;;;;;;4912880;29;20180;-55
2024/01/07 12:00:37;;;;;;;14.77;6.50;;;2.20;99.90;;;;;;4912517;29;20227;-53
2024/01/07 12:03:03;;;;;;;17.60;7.87;;;2.10;99.90;;;;;;4912125;29;20313;-53
2024/01/07 12:05:30;;;;;;;15.93;8.23;;;2.00;99.90;;;;;;4912979;29;20238;-53
2024/01/07 12:07:56;;;;;;;15.70;8.67;;;2.00;99.90;;;;;;4910047;29;20215;-53
2024/01/07 12:10:23;;;;;;;18.33;8.27;;;2.10;99.90;;;;;;4899873;29;20294;-52
2024/01/07 12:12:50;;;;;;;17.60;8.63;;;2.00;99.90;;;;;;4911797;29;20211;-52
2024/01/07 12:15:17;;;;;;;15.83;7.80;;;2.00;99.90;;;;;;4912656;29;20176;-58
2024/01/07 12:17:47;;;;;;;16.57;7.97;;;2.00;99.90;;;;;;4911403;29;20608;-55
2024/01/07 12:20:15;;;;;;;16.03;7.97;;;2.00;99.90;;;;;;4906458;29;20258;-53
2024/01/07 12:22:40;;;;;;;16.40;7.70;;;1.90;99.90;;;;;;4911793;29;20209;-52
2024/01/07 12:25:07;;;;;;;20.00;8.47;;;1.80;99.90;;;;;;4912563;29;20188;-55
2024/01/07 12:27:33;;;;;;;17.23;8.53;;;1.90;99.90;;;;;;4912780;29;20227;-56
2024/01/07 12:29:59;;;;;;;19.17;7.77;;;1.70;99.90;;;;;;4912390;29;20287;-56
2024/01/07 12:32:31;;;;;;;14.90;7.50;;;1.60;99.90;;;;;;4912242;29;20718;-55
2024/01/07 12:34:58;;;;;;;16.07;8.10;;;1.60;99.90;;;;;;4912161;29;20235;-56
2024/01/07 12:37:26;;;;;;;15.97;7.70;;;1.60;99.90;;;;;;4912625;29;20689;-56
2024/01/07 12:39:52;;;;;;;17.10;8.30;;;1.60;99.90;;;;;;4912291;29;20239;-55
2024/01/07 12:42:18;;;;;;;17.17;7.63;;;1.50;99.90;;;;;;4911993;29;20286;-55
2024/01/07 12:44:44;;;;;;;18.50;8.07;;;1.50;99.90;;;;;;4912144;29;20192;-53
2024/01/07 12:47:09;;;;;;;13.40;6.23;;;1.50;99.90;;;;;;4912729;29;20607;-55